首页
METAR-TAF:

METAR-TAF

机场 :

Roanoke Regional Airport (Woodrum Field)

羅阿諾克, 弗吉尼亚州, 美国

纬度: 37-19-01N, 经度: 079-58-27W, 海拔: 358米

当前天气观测

该预报发布于27分钟前的00:54 UTC
风速8节,风向
温度 19°C
湿度 52%
气压 1017 hPa
能見度: 16.1公里
天空无云

METAR: KROA 070054Z 36008KT 10SM CLR 19/09 A3002 RMK AO2 SLP158 T01940089

时间: 21:21 (01:21 UTC)

预报

该预报发布于2小时和1分钟前的23:20 UTC
预报有效从07日的 00点(UTC)到 07日的 24点(UTC)
风速6节,风向西北
能見度: 10公里
少量云层高于10000英尺
从 07日的 1800点(UTC)
风速9节,风向西,有时为19节阵风
能見度: 10公里
散云层高于6000英尺
多云层高于12000英尺

TAF: KROA 062320Z 0700/0724 32006KT P6SM FEW100 FM071800 26009G19KT P6SM SCT060 BKN120

超过4000个机场的气象观测和天气预报(METAR&TAF报告)。

可查询的气象台以黄色和红色小点在地图上表示。

将鼠标移到小点上方,可查看气象台名称。

然后点击查看天气观测和预报。

如需切换地图:点击带黑十字的绿色按钮放大地图;点击带横线的绿色按钮缩小地图;或者点击绿色箭头查看邻近地区的地图。


METAR-TAF: